createdAt,value
2017-08-05T03:30:56.407Z,21.00
2017-08-05T03:33:24.049Z,21.00
2017-08-05T03:35:51.789Z,21.00
2017-08-05T03:38:19.445Z,20.90
2017-08-05T03:40:47.100Z,20.90
2017-08-05T03:43:14.739Z,20.90
2017-08-05T03:45:42.712Z,20.90
2017-08-05T03:48:10.449Z,20.80
2017-08-05T03:50:38.102Z,20.80
2017-08-05T03:53:05.765Z,20.70
2017-08-05T03:55:33.418Z,20.70
2017-08-05T03:58:01.089Z,20.70
2017-08-05T04:00:28.719Z,20.80
2017-08-05T04:02:56.764Z,20.80
2017-08-05T04:05:24.454Z,20.70
2017-08-05T04:07:52.091Z,20.70
2017-08-05T04:10:20.157Z,20.70
2017-08-05T04:12:47.808Z,20.70
2017-08-05T04:15:16.198Z,20.70
2017-08-05T04:17:44.258Z,20.70
2017-08-05T04:20:11.908Z,20.80
2017-08-05T04:22:40.325Z,20.80
2017-08-05T04:25:08.376Z,20.80
2017-08-05T04:27:36.000Z,20.70
2017-08-05T04:30:03.652Z,20.70
2017-08-05T04:32:31.673Z,20.90
2017-08-05T04:34:59.295Z,20.90
2017-08-05T04:37:26.945Z,20.80
2017-08-05T04:39:54.932Z,20.70
2017-08-05T04:42:23.344Z,20.70
2017-08-05T04:44:50.972Z,20.60
2017-08-05T04:47:18.639Z,20.70
2017-08-05T04:49:46.267Z,20.80
2017-08-05T04:52:13.936Z,20.90
2017-08-05T04:54:41.577Z,20.90
2017-08-05T04:57:09.260Z,20.90
2017-08-05T04:59:36.914Z,20.90
2017-08-05T05:02:05.054Z,21.10
2017-08-05T05:04:32.700Z,21.10
2017-08-05T05:09:35.166Z,21.20
2017-08-05T05:12:02.817Z,21.30
2017-08-05T05:14:30.491Z,21.40
2017-08-05T05:16:58.145Z,21.40
2017-08-05T05:19:25.795Z,21.60
2017-08-05T05:21:53.434Z,21.70
2017-08-05T05:24:21.427Z,21.70
2017-08-05T05:26:49.128Z,21.70
2017-08-05T05:29:16.841Z,21.80
2017-08-05T05:31:44.521Z,21.80
2017-08-05T05:34:12.171Z,21.80
2017-08-05T05:36:39.834Z,22.10
2017-08-05T05:39:07.493Z,22.20
2017-08-05T05:41:35.489Z,22.20
2017-08-05T05:44:03.130Z,22.30
2017-08-05T05:46:30.773Z,22.30
2017-08-05T05:48:58.421Z,22.40
2017-08-05T05:51:26.063Z,22.50
2017-08-05T05:53:54.133Z,22.70
2017-08-05T05:56:21.774Z,22.70
2017-08-05T05:58:49.485Z,22.60
2017-08-05T06:01:17.523Z,22.70
2017-08-05T06:03:45.916Z,23.00
2017-08-05T06:06:13.556Z,22.90
2017-08-05T06:08:42.364Z,23.40
2017-08-05T06:11:10.021Z,23.40
2017-08-05T06:13:37.675Z,23.50
2017-08-05T06:16:05.745Z,23.60
2017-08-05T06:18:33.388Z,23.80
2017-08-05T06:21:01.012Z,24.10
2017-08-05T06:23:29.060Z,24.30
2017-08-05T06:25:56.734Z,24.40
2017-08-05T06:28:24.385Z,24.50
2017-08-05T06:30:52.429Z,24.80
2017-08-05T06:33:20.096Z,24.90
2017-08-05T06:35:48.533Z,25.00
2017-08-05T06:38:16.570Z,25.00
2017-08-05T06:40:44.211Z,25.10
2017-08-05T06:43:12.616Z,25.30
2017-08-05T06:45:40.767Z,25.30
2017-08-05T06:48:08.423Z,25.40
2017-08-05T06:50:36.936Z,25.80
2017-08-05T06:53:04.997Z,25.70
2017-08-05T06:55:32.654Z,25.70
2017-08-05T06:58:00.561Z,25.80
2017-08-05T07:00:28.235Z,26.00
2017-08-05T07:02:55.911Z,26.20
2017-08-05T07:05:23.609Z,26.20
2017-08-05T07:07:51.245Z,26.10
2017-08-05T07:10:19.685Z,26.10
2017-08-05T07:12:47.336Z,26.10
2017-08-05T07:15:14.996Z,26.10
2017-08-05T07:17:42.655Z,26.20
2017-08-05T07:20:10.283Z,26.50
2017-08-05T07:22:38.745Z,26.80
2017-08-05T07:25:06.461Z,26.80
2017-08-05T07:27:34.122Z,27.00
2017-08-05T07:30:01.758Z,27.30
2017-08-05T07:32:29.856Z,27.70
2017-08-05T07:34:57.503Z,27.70
2017-08-05T07:37:25.138Z,28.00
2017-08-05T07:39:53.607Z,28.20
2017-08-05T07:42:21.249Z,28.10
2017-08-05T07:44:49.772Z,28.20
2017-08-05T07:47:18.185Z,27.90
2017-08-05T07:49:45.837Z,27.80
2017-08-05T07:52:13.466Z,27.70
2017-08-05T07:54:41.998Z,28.00
2017-08-05T07:57:09.631Z,27.90
2017-08-05T07:59:37.677Z,28.10
2017-08-05T08:02:05.313Z,27.90
2017-08-05T08:04:33.745Z,28.00
2017-08-05T08:07:01.411Z,28.10
2017-08-05T08:09:29.047Z,28.30
2017-08-05T08:11:57.459Z,28.30
2017-08-05T08:14:25.117Z,28.30
2017-08-05T08:16:52.782Z,28.70
2017-08-05T08:19:20.459Z,28.70
2017-08-05T08:21:48.510Z,28.90
2017-08-05T08:24:16.155Z,29.00
2017-08-05T08:26:43.850Z,29.30
2017-08-05T08:29:11.882Z,29.40
2017-08-05T08:31:40.472Z,29.00
2017-08-05T08:34:08.112Z,28.90
2017-08-05T08:36:36.098Z,29.30
2017-08-05T08:39:04.501Z,29.50
2017-08-05T08:41:32.134Z,29.40
2017-08-05T08:44:00.219Z,29.70
2017-08-05T08:46:28.163Z,30.00
2017-08-05T08:48:55.823Z,30.30
2017-08-05T08:51:23.950Z,30.70
2017-08-05T08:53:51.791Z,31.00
2017-08-05T08:56:19.470Z,31.10
2017-08-05T08:58:47.518Z,31.10
2017-08-05T09:01:15.189Z,31.10
2017-08-05T09:03:42.843Z,31.20
2017-08-05T09:06:10.817Z,31.20
2017-08-05T09:08:38.444Z,31.80
2017-08-05T09:11:06.089Z,32.70
2017-08-05T09:13:34.122Z,33.40
2017-08-05T09:16:01.778Z,33.20
2017-08-05T09:18:29.453Z,33.80
2017-08-05T09:20:57.487Z,34.70
2017-08-05T09:23:25.142Z,35.60
2017-08-05T09:25:53.564Z,37.30
2017-08-05T09:28:21.629Z,37.20
2017-08-05T09:30:49.314Z,37.60
2017-08-05T09:33:16.976Z,38.10
2017-08-05T09:35:45.257Z,39.00
2017-08-05T09:38:12.936Z,39.40
2017-08-05T09:40:40.600Z,39.90
2017-08-05T09:43:08.591Z,40.70
2017-08-05T09:45:37.015Z,42.60
2017-08-05T09:48:05.049Z,42.50
2017-08-05T09:50:33.852Z,44.40
2017-08-05T09:53:01.498Z,44.30
2017-08-05T09:55:29.902Z,46.40
2017-08-05T09:57:57.874Z,46.30
2017-08-05T10:00:25.497Z,47.10
2017-08-05T10:02:53.909Z,46.30
2017-08-05T10:05:21.586Z,46.30
2017-08-05T10:07:49.236Z,47.10
2017-08-05T10:10:17.138Z,48.60
2017-08-05T10:12:45.083Z,49.70
2017-08-05T10:15:12.973Z,50.10
2017-08-05T10:17:40.617Z,50.70
2017-08-05T10:20:08.493Z,50.90
2017-08-05T10:22:36.547Z,50.10
2017-08-05T10:25:04.916Z,50.30
2017-08-05T10:27:32.597Z,51.10
2017-08-05T10:30:00.228Z,49.90
2017-08-05T10:32:28.202Z,50.10
2017-08-05T10:34:55.870Z,50.80
2017-08-05T10:37:23.561Z,51.10
2017-08-05T10:39:51.534Z,50.60
2017-08-05T10:42:19.209Z,49.20
2017-08-05T10:44:46.854Z,48.50
2017-08-05T10:47:15.094Z,49.90
2017-08-05T10:49:42.875Z,50.20
2017-08-05T10:52:12.432Z,49.80
2017-08-05T10:54:41.112Z,49.80
2017-08-05T10:57:08.762Z,48.70
2017-08-05T10:59:36.473Z,48.70
2017-08-05T11:02:04.517Z,49.40
2017-08-05T11:04:32.958Z,50.60
2017-08-05T11:07:00.633Z,50.50
2017-08-05T11:09:28.669Z,49.20
2017-08-05T11:11:56.325Z,49.80
2017-08-05T11:14:23.977Z,48.70
2017-08-05T11:16:51.980Z,47.60
2017-08-05T11:19:19.637Z,46.40
2017-08-05T11:21:47.398Z,46.80
2017-08-05T11:24:15.430Z,46.40
2017-08-05T11:26:43.901Z,42.40
2017-08-05T11:29:14.008Z,41.80
2017-08-05T11:31:42.529Z,41.70
2017-08-05T11:34:10.212Z,41.30
2017-08-05T11:36:37.866Z,39.70
2017-08-05T11:39:05.913Z,39.60
2017-08-05T11:41:34.505Z,38.30
2017-08-05T11:44:02.168Z,38.30
2017-08-05T11:46:29.851Z,38.20
2017-08-05T11:48:57.508Z,37.30
2017-08-05T11:51:25.169Z,36.80
2017-08-05T11:53:52.865Z,35.80
2017-08-05T11:56:20.807Z,35.60
2017-08-05T11:58:48.530Z,36.30
2017-08-05T12:01:16.947Z,36.60
2017-08-05T12:03:44.605Z,36.60
2017-08-05T12:06:12.308Z,36.40
2017-08-05T12:08:39.968Z,36.60
2017-08-05T12:11:07.602Z,37.00
2017-08-05T12:13:35.259Z,36.50
2017-08-05T12:16:02.923Z,35.80
2017-08-05T12:18:30.640Z,35.10
2017-08-05T12:20:58.383Z,34.60
2017-08-05T12:23:26.378Z,34.20
2017-08-05T12:25:54.801Z,34.20
2017-08-05T12:28:22.447Z,34.10
2017-08-05T12:30:50.509Z,34.40
2017-08-05T12:33:18.191Z,33.90
2017-08-05T12:35:45.853Z,33.60
2017-08-05T12:38:13.580Z,33.30
2017-08-05T12:40:42.044Z,33.60
2017-08-05T12:43:10.049Z,33.60
2017-08-05T12:45:37.712Z,33.70
2017-08-05T12:48:05.381Z,33.70
2017-08-05T12:50:33.346Z,33.50
2017-08-05T12:53:01.005Z,33.10
2017-08-05T12:55:28.672Z,32.70
2017-08-05T12:57:56.372Z,32.00
2017-08-05T13:00:24.047Z,32.40
2017-08-05T13:02:51.712Z,32.70
2017-08-05T13:05:19.424Z,32.60
2017-08-05T13:07:47.515Z,32.70
2017-08-05T13:10:15.172Z,33.00
2017-08-05T13:12:42.831Z,32.80
2017-08-05T13:15:10.780Z,32.70
2017-08-05T13:17:38.480Z,32.70
2017-08-05T13:20:06.124Z,32.40
2017-08-05T13:22:34.185Z,32.20
2017-08-05T13:25:01.823Z,32.20
2017-08-05T13:27:30.242Z,31.70
2017-08-05T13:29:58.245Z,31.60
2017-08-05T13:32:25.922Z,31.60
2017-08-05T13:34:53.593Z,32.00
2017-08-05T13:37:22.097Z,32.00
2017-08-05T13:39:49.769Z,32.00
2017-08-05T13:42:17.830Z,32.40
2017-08-05T13:44:45.471Z,32.20
2017-08-05T13:47:13.886Z,31.10
2017-08-05T13:49:41.950Z,31.00
2017-08-05T13:52:09.609Z,31.40
2017-08-05T13:54:37.270Z,31.60
2017-08-05T13:57:05.336Z,31.90
2017-08-05T13:59:33.038Z,32.10
2017-08-05T14:02:00.694Z,32.10
2017-08-05T14:04:28.730Z,32.30
2017-08-05T14:06:56.377Z,32.10
2017-08-05T14:09:24.048Z,31.70
2017-08-05T14:11:52.795Z,31.40
2017-08-05T14:14:20.416Z,31.40
2017-08-05T14:16:48.069Z,31.40
2017-08-05T14:19:15.745Z,31.40
2017-08-05T14:21:43.419Z,31.50
2017-08-05T14:24:11.090Z,31.40
2017-08-05T14:26:38.750Z,31.60
2017-08-05T14:29:06.779Z,31.30
2017-08-05T14:31:34.433Z,31.40
2017-08-05T14:34:02.852Z,31.50
2017-08-05T14:36:30.856Z,31.50
2017-08-05T14:38:58.505Z,31.50
2017-08-05T14:41:26.157Z,31.40
2017-08-05T14:43:54.202Z,31.50
2017-08-05T14:46:21.852Z,31.40
2017-08-05T14:48:49.529Z,31.50
2017-08-05T14:51:17.590Z,31.30
2017-08-05T14:53:45.256Z,31.40
2017-08-05T14:56:12.911Z,31.40
2017-08-05T14:58:40.990Z,31.00
2017-08-05T15:01:08.632Z,30.80
2017-08-05T15:03:36.373Z,30.70
2017-08-05T15:06:04.508Z,30.90
2017-08-05T15:08:32.164Z,31.00
2017-08-05T15:10:59.820Z,31.40
2017-08-05T15:13:27.863Z,31.50
2017-08-05T15:15:56.325Z,31.30
2017-08-05T15:18:23.990Z,31.30
2017-08-05T15:20:51.985Z,31.40
2017-08-05T15:23:19.653Z,31.60
2017-08-05T15:25:47.294Z,31.70
2017-08-05T15:28:16.185Z,31.20
2017-08-05T15:30:43.821Z,31.20
2017-08-05T15:33:11.455Z,31.30
2017-08-05T15:35:39.151Z,31.40
2017-08-05T15:38:07.694Z,31.30
2017-08-05T15:40:35.367Z,31.20
2017-08-05T15:43:03.017Z,30.90
2017-08-05T15:45:30.745Z,30.80
2017-08-05T15:47:59.194Z,30.90
2017-08-05T15:50:27.284Z,30.90
2017-08-05T15:52:54.923Z,30.60
2017-08-05T15:55:22.551Z,30.40
2017-08-05T15:57:50.589Z,30.20
2017-08-05T16:00:18.251Z,30.10
2017-08-05T16:02:45.919Z,30.20
2017-08-05T16:05:14.822Z,30.20
2017-08-05T16:07:42.459Z,30.20
2017-08-05T16:10:10.869Z,30.00
2017-08-05T16:12:38.890Z,30.00
2017-08-05T16:15:06.662Z,30.30
2017-08-05T16:17:34.333Z,30.40
2017-08-05T16:20:03.145Z,30.40
2017-08-05T16:22:30.791Z,30.30
2017-08-05T16:24:59.214Z,30.40
2017-08-05T16:27:27.248Z,30.40
2017-08-05T16:29:55.662Z,30.20
2017-08-05T16:32:23.293Z,30.20
2017-08-05T16:34:52.042Z,29.80
2017-08-05T16:37:19.676Z,29.70
2017-08-05T16:39:47.348Z,29.60
2017-08-05T16:42:15.465Z,29.50
2017-08-05T16:44:43.107Z,29.60
2017-08-05T16:47:10.774Z,29.80
2017-08-05T16:49:38.873Z,30.00
2017-08-05T16:52:06.519Z,29.80
2017-08-05T16:54:34.989Z,29.90
2017-08-05T16:57:03.009Z,29.90
2017-08-05T16:59:30.681Z,29.40
2017-08-05T17:01:58.328Z,29.00
2017-08-05T17:04:26.371Z,29.00
2017-08-05T17:06:54.806Z,29.20
2017-08-05T17:09:22.453Z,29.10
2017-08-05T17:11:50.489Z,29.20
2017-08-05T17:14:18.881Z,29.00
2017-08-05T17:16:46.540Z,29.00
2017-08-05T17:19:14.637Z,29.00
2017-08-05T17:21:42.289Z,28.80
2017-08-05T17:24:09.974Z,28.80
2017-08-05T17:26:38.092Z,28.90
2017-08-05T17:29:07.705Z,28.90
2017-08-05T17:31:36.115Z,29.00
2017-08-05T17:34:04.145Z,28.90
2017-08-05T17:36:32.567Z,29.00
2017-08-05T17:39:00.232Z,29.00
2017-08-05T17:41:28.281Z,29.00
2017-08-05T17:43:56.016Z,28.80
2017-08-05T17:46:23.675Z,28.70
2017-08-05T17:48:51.752Z,28.60
2017-08-05T17:51:20.159Z,28.50
2017-08-05T17:53:47.817Z,28.40
2017-08-05T17:56:15.926Z,28.40
2017-08-05T17:58:43.574Z,28.30
2017-08-05T18:01:11.242Z,28.40
2017-08-05T18:03:39.274Z,28.50
2017-08-05T18:06:07.685Z,28.00
2017-08-05T18:08:35.343Z,28.00
2017-08-05T18:11:03.387Z,28.00
2017-08-05T18:13:31.040Z,28.00
2017-08-05T18:15:59.489Z,28.10
2017-08-05T18:18:27.605Z,28.00
2017-08-05T18:20:55.262Z,28.20
2017-08-05T18:23:22.929Z,28.00
2017-08-05T18:25:51.015Z,27.90
2017-08-05T18:28:18.672Z,28.00
2017-08-05T18:30:46.338Z,27.70
2017-08-05T18:33:14.405Z,27.60
2017-08-05T18:35:42.059Z,27.50
2017-08-05T18:38:09.726Z,27.50
2017-08-05T18:40:37.777Z,27.40
2017-08-05T18:43:06.372Z,27.30
2017-08-05T18:45:34.017Z,27.30
2017-08-05T18:48:02.117Z,27.20
2017-08-05T18:50:29.776Z,27.20
2017-08-05T18:52:57.467Z,27.20
2017-08-05T18:55:26.227Z,27.00
2017-08-05T18:57:54.026Z,26.90
2017-08-05T19:00:21.707Z,26.80
2017-08-05T19:02:49.677Z,26.70
2017-08-05T19:05:18.233Z,26.70
2017-08-05T19:07:45.887Z,26.80
2017-08-05T19:10:13.909Z,26.70
2017-08-05T19:12:41.552Z,26.60
2017-08-05T19:15:09.198Z,26.40
2017-08-05T19:17:37.332Z,26.50
2017-08-05T19:20:05.212Z,26.60
2017-08-05T19:22:32.862Z,26.70
2017-08-05T19:25:00.941Z,26.80
2017-08-05T19:27:28.717Z,27.00
2017-08-05T19:29:56.376Z,27.00
2017-08-05T19:32:24.415Z,27.00
2017-08-05T19:34:52.820Z,26.70
2017-08-05T19:37:20.477Z,26.70
2017-08-05T19:39:48.494Z,26.80
2017-08-05T19:42:16.151Z,26.70
2017-08-05T19:44:43.813Z,26.80
2017-08-05T19:47:11.824Z,26.70
2017-08-05T19:49:39.494Z,26.70
2017-08-05T19:52:07.140Z,26.70
2017-08-05T19:54:35.225Z,26.70
2017-08-05T19:57:03.623Z,26.40
2017-08-05T19:59:31.260Z,26.30
2017-08-05T20:02:00.057Z,26.30
2017-08-05T20:04:27.717Z,26.30
2017-08-05T20:06:56.135Z,26.10
2017-08-05T20:09:24.177Z,26.10
2017-08-05T20:11:51.844Z,25.70
2017-08-05T20:14:19.534Z,25.70
2017-08-05T20:16:47.685Z,25.70
2017-08-05T20:19:15.399Z,25.40
2017-08-05T20:21:43.054Z,25.50
2017-08-05T20:24:11.086Z,25.40
2017-08-05T20:26:38.738Z,25.00
2017-08-05T20:29:06.383Z,25.10
2017-08-05T20:31:35.189Z,24.80
2017-08-05T20:34:02.841Z,24.80
2017-08-05T20:36:30.512Z,24.90
2017-08-05T20:38:58.548Z,24.80
2017-08-05T20:41:26.181Z,24.80
2017-08-05T20:43:53.842Z,24.70
2017-08-05T20:46:21.968Z,24.70
2017-08-05T20:48:49.620Z,24.80
2017-08-05T20:51:18.024Z,25.00
2017-08-05T20:53:46.351Z,24.90
2017-08-05T20:56:13.996Z,25.00
2017-08-05T20:58:41.663Z,25.10
2017-08-05T21:01:09.694Z,25.10
2017-08-05T21:03:37.360Z,24.70
2017-08-05T21:06:04.999Z,24.50
2017-08-05T21:08:33.780Z,24.60
2017-08-05T21:11:02.179Z,24.60
2017-08-05T21:13:29.822Z,24.60
2017-08-05T21:15:58.734Z,24.70
2017-08-05T21:18:26.390Z,24.70
2017-08-05T21:20:54.031Z,24.70
2017-08-05T21:23:22.846Z,25.00
2017-08-05T21:25:50.503Z,25.00
2017-08-05T21:28:18.161Z,24.90
2017-08-05T21:30:46.194Z,24.70
2017-08-05T21:33:13.846Z,24.70
2017-08-05T21:35:41.496Z,24.60
2017-08-05T21:38:09.541Z,24.60
2017-08-05T21:40:37.198Z,24.70
2017-08-05T21:43:04.856Z,24.50
2017-08-05T21:45:32.877Z,24.30
2017-08-05T21:48:00.517Z,24.20
2017-08-05T21:50:28.145Z,24.40
2017-08-05T21:52:56.211Z,24.50
2017-08-05T21:55:23.859Z,24.50
2017-08-05T21:57:52.264Z,24.50
2017-08-05T22:00:20.321Z,24.50
2017-08-05T22:02:47.982Z,24.30
2017-08-05T22:05:16.416Z,24.00
2017-08-05T22:07:44.537Z,24.00
2017-08-05T22:10:12.184Z,24.10
2017-08-05T22:12:40.616Z,24.30
2017-08-05T22:15:08.767Z,24.30
2017-08-05T22:17:36.508Z,24.30
2017-08-05T22:20:05.542Z,23.90
2017-08-05T22:22:33.579Z,23.90
2017-08-05T22:25:01.228Z,23.80
2017-08-05T22:27:29.652Z,23.60
2017-08-05T22:29:57.688Z,23.60
